Time;durP1;ratioP1;P1;durP2;ratioP2;P2;SDS_P1;SDS_P2;PMS_P1;PMS_P2;Temp;Humidity;BMP_temperature;BMP_pressure;BME280_temperature;BME280_humidity;BME280_pressure;Samples;Min_cycle;Max_cycle;Signal;HPM_P1;HPM_P2
2021/01/13 00:02:23;;;;;;;15.45;8.73;;;4.50;96.70;;;;;;4832677;29;20137;-70
2021/01/13 00:04:50;;;;;;;15.50;9.13;;;4.50;96.70;;;;;;4833499;29;20058;-70
2021/01/13 00:07:18;;;;;;;15.35;9.93;;;4.50;96.70;;;;;;4828633;29;20054;-70
2021/01/13 00:09:46;;;;;;;18.50;11.82;;;4.40;96.70;;;;;;4848206;29;20045;-70
2021/01/13 00:12:13;;;;;;;15.85;10.73;;;4.40;96.70;;;;;;4830613;29;20074;-70
2021/01/13 00:14:42;;;;;;;15.77;11.07;;;4.40;96.70;;;;;;4834721;29;20046;-70
2021/01/13 00:17:11;;;;;;;15.85;10.90;;;4.30;96.70;;;;;;4841406;29;20050;-70
2021/01/13 00:19:38;;;;;;;14.93;10.07;;;4.30;96.70;;;;;;4832353;29;20404;-70
2021/01/13 00:22:05;;;;;;;17.60;11.00;;;4.30;96.70;;;;;;4833659;29;20054;-70
2021/01/13 00:24:33;;;;;;;17.52;10.50;;;4.30;96.70;;;;;;4832623;29;20412;-71
2021/01/13 00:27:01;;;;;;;16.83;10.60;;;4.30;96.70;;;;;;4818880;29;20190;-70
2021/01/13 00:29:29;;;;;;;18.05;11.63;;;4.20;96.70;;;;;;4830722;29;20050;-70
2021/01/13 00:31:57;;;;;;;26.98;17.45;;;4.20;96.70;;;;;;4839137;29;20045;-70
2021/01/13 00:34:25;;;;;;;29.70;19.90;;;4.30;96.70;;;;;;4836023;29;20081;-70
2021/01/13 00:36:53;;;;;;;22.38;15.20;;;4.20;96.70;;;;;;4827821;29;20053;-70
2021/01/13 00:39:20;;;;;;;18.48;12.90;;;4.10;96.70;;;;;;4835385;29;20053;-70
2021/01/13 00:41:47;;;;;;;15.35;10.75;;;4.10;96.70;;;;;;4848070;29;20695;-70
2021/01/13 00:44:14;;;;;;;15.63;10.52;;;4.10;96.70;;;;;;4848536;29;20136;-70
2021/01/13 00:46:44;;;;;;;15.65;10.10;;;4.10;96.70;;;;;;4848998;29;20576;-70
2021/01/13 00:49:12;;;;;;;14.13;10.07;;;4.10;96.70;;;;;;4832997;29;20429;-70
2021/01/13 00:51:42;;;;;;;17.15;10.95;;;4.10;96.70;;;;;;4830221;29;20045;-70
2021/01/13 00:54:11;;;;;;;16.08;11.10;;;4.00;96.70;;;;;;4830670;29;20053;-70
2021/01/13 00:56:41;;;;;;;19.95;12.77;;;4.00;96.70;;;;;;4832394;29;20124;-70
2021/01/13 00:59:11;;;;;;;18.55;12.20;;;4.00;96.70;;;;;;4835436;29;20093;-70
2021/01/13 01:01:40;;;;;;;17.95;11.77;;;3.90;96.70;;;;;;4818605;29;20049;-70
2021/01/13 01:04:08;;;;;;;19.15;12.30;;;3.90;96.70;;;;;;4837312;29;20086;-70
2021/01/13 01:06:36;;;;;;;17.80;12.18;;;3.90;96.70;;;;;;4836319;29;20054;-71
2021/01/13 01:09:05;;;;;;;20.83;12.82;;;4.00;96.70;;;;;;4835163;29;20576;-71
2021/01/13 01:11:35;;;;;;;23.25;13.60;;;4.00;96.70;;;;;;4835267;29;20040;-70
2021/01/13 01:14:03;;;;;;;21.70;13.38;;;4.00;96.70;;;;;;4829850;29;20054;-70
2021/01/13 01:16:31;;;;;;;19.67;13.27;;;4.10;96.70;;;;;;4830725;29;21294;-70
2021/01/13 01:18:59;;;;;;;17.23;13.07;;;4.00;96.70;;;;;;4843281;29;20152;-70
2021/01/13 01:21:27;;;;;;;22.08;13.32;;;4.00;96.70;;;;;;4830290;29;20124;-71
2021/01/13 01:23:55;;;;;;;22.05;13.88;;;4.00;96.70;;;;;;4848785;29;20046;-70
2021/01/13 01:26:23;;;;;;;21.35;14.15;;;3.90;96.70;;;;;;4817059;29;20556;-70
2021/01/13 01:28:51;;;;;;;23.67;14.45;;;4.00;96.70;;;;;;4834218;29;20142;-70
2021/01/13 01:31:18;;;;;;;20.73;13.77;;;4.10;96.70;;;;;;4830534;29;20050;-71
2021/01/13 01:33:46;;;;;;;22.83;15.05;;;4.10;96.70;;;;;;4832243;29;20308;-69
2021/01/13 01:36:15;;;;;;;24.55;14.57;;;4.20;96.70;;;;;;4830736;29;20060;-70
2021/01/13 01:38:43;;;;;;;23.27;15.80;;;4.10;96.70;;;;;;4849983;29;20069;-70
2021/01/13 01:41:15;;;;;;;22.20;15.18;;;4.10;96.70;;;;;;4830719;29;20109;-70
2021/01/13 01:43:45;;;;;;;26.45;16.33;;;4.20;96.70;;;;;;4833912;29;20050;-69
2021/01/13 01:46:13;;;;;;;24.35;15.05;;;4.20;96.70;;;;;;4832775;29;21533;-70
2021/01/13 01:48:50;;;;;;;23.85;14.07;;;4.10;96.70;;;;;;4836091;29;20045;-70
2021/01/13 01:51:21;;;;;;;22.05;14.20;;;4.10;96.70;;;;;;4831476;29;20049;-71
2021/01/13 01:54:02;;;;;;;18.25;13.57;;;4.20;96.70;;;;;;4832996;29;20045;-70
2021/01/13 01:56:36;;;;;;;20.25;14.85;;;4.10;96.70;;;;;;4845208;29;20077;-70
2021/01/13 01:59:07;;;;;;;21.90;13.23;;;4.10;96.70;;;;;;4829923;29;20058;-73
2021/01/13 02:01:37;;;;;;;20.02;13.38;;;4.10;96.70;;;;;;4826477;29;20042;-73
2021/01/13 02:04:13;;;;;;;20.02;12.75;;;4.20;96.70;;;;;;4830747;29;20564;-73
2021/01/13 02:07:05;;;;;;;19.75;12.60;;;4.20;96.70;;;;;;4837742;29;20118;-73
2021/01/13 02:09:33;;;;;;;19.40;12.07;;;4.10;96.70;;;;;;4831668;29;20065;-73
2021/01/13 02:12:08;;;;;;;16.40;11.18;;;4.20;96.70;;;;;;4836357;29;20068;-73
2021/01/13 02:14:40;;;;;;;14.23;9.75;;;4.20;96.70;;;;;;4826090;29;20057;-73
2021/01/13 02:17:09;;;;;;;14.73;9.75;;;4.30;96.70;;;;;;4843522;29;20297;-73
2021/01/13 02:20:02;;;;;;;12.82;9.40;;;4.20;96.70;;;;;;4834564;29;20170;-73
2021/01/13 02:22:38;;;;;;;14.77;8.80;;;4.20;96.70;;;;;;4831925;29;20054;-73
2021/01/13 02:25:37;;;;;;;16.48;9.60;;;4.20;96.70;;;;;;4832112;29;20053;-73
2021/01/13 02:28:09;;;;;;;12.90;8.85;;;4.20;96.70;;;;;;4829929;29;20034;-73
2021/01/13 02:30:39;;;;;;;11.55;8.48;;;4.20;96.70;;;;;;4833773;29;20562;-73
2021/01/13 02:33:19;;;;;;;14.35;8.55;;;4.20;96.70;;;;;;4830145;29;21079;-73
2021/01/13 02:36:06;;;;;;;13.93;9.07;;;4.10;96.70;;;;;;4843445;29;20046;-73
2021/01/13 02:38:36;;;;;;;13.57;8.82;;;4.10;96.70;;;;;;4831853;29;20582;-73
2021/01/13 02:41:15;;;;;;;13.57;8.88;;;4.10;96.70;;;;;;4830621;29;20042;-74
2021/01/13 02:43:54;;;;;;;12.18;8.75;;;4.10;96.70;;;;;;4837368;29;20054;-74
2021/01/13 02:46:51;;;;;;;11.88;8.18;;;4.00;96.70;;;;;;4829057;29;20508;-74
2021/01/13 02:49:23;;;;;;;12.23;8.18;;;4.00;96.70;;;;;;4844048;29;20062;-73
2021/01/13 02:51:55;;;;;;;13.18;8.13;;;4.00;96.70;;;;;;4829694;29;20048;-74
2021/01/13 02:54:30;;;;;;;13.00;8.52;;;3.90;96.70;;;;;;4848119;29;20454;-74
2021/01/13 02:57:08;;;;;;;14.00;8.80;;;3.90;96.70;;;;;;4830338;29;20049;-73
2021/01/13 02:59:37;;;;;;;12.70;8.63;;;3.90;96.70;;;;;;4833288;29;20038;-74
2021/01/13 03:02:10;;;;;;;15.52;9.10;;;3.90;96.70;;;;;;4829443;29;20098;-73
2021/01/13 03:04:38;;;;;;;14.68;9.30;;;3.90;96.70;;;;;;4846216;29;20385;-73
2021/01/13 03:07:11;;;;;;;12.48;8.80;;;4.00;96.70;;;;;;4830955;29;20045;-73
2021/01/13 03:09:40;;;;;;;12.52;9.00;;;3.90;96.70;;;;;;4841473;29;20115;-73
2021/01/13 03:12:18;;;;;;;11.25;8.05;;;4.00;96.70;;;;;;4832623;29;20046;-73
2021/01/13 03:14:52;;;;;;;13.93;9.20;;;3.90;96.70;;;;;;4830754;29;20132;-73
2021/01/13 03:17:45;;;;;;;15.95;9.93;;;3.90;96.70;;;;;;4833393;29;20103;-73
2021/01/13 03:20:23;;;;;;;15.18;10.38;;;4.00;96.70;;;;;;4831804;29;20049;-73
2021/01/13 03:22:57;;;;;;;18.02;10.90;;;4.00;96.70;;;;;;4844644;29;20054;-74
2021/01/13 03:25:25;;;;;;;17.08;10.90;;;4.10;96.70;;;;;;4828422;29;20046;-74
2021/01/13 03:27:55;;;;;;;15.55;11.40;;;4.20;96.70;;;;;;4831772;29;20531;-73
2021/01/13 03:30:26;;;;;;;18.92;11.68;;;4.20;96.70;;;;;;4829281;29;20060;-74
2021/01/13 03:33:09;;;;;;;15.13;10.90;;;4.20;96.70;;;;;;4830685;29;20037;-73
2021/01/13 03:35:40;;;;;;;19.67;12.43;;;4.20;96.70;;;;;;4842417;29;20342;-73
2021/01/13 03:38:13;;;;;;;18.35;11.45;;;4.20;96.70;;;;;;4828522;29;20054;-74
2021/01/13 03:40:43;;;;;;;19.30;12.02;;;4.20;96.70;;;;;;4841683;29;20162;-73
2021/01/13 03:43:19;;;;;;;17.40;12.80;;;4.20;96.70;;;;;;4829560;29;20050;-74
2021/01/13 03:45:50;;;;;;;16.65;11.95;;;4.20;96.70;;;;;;4824896;29;20057;-73
2021/01/13 03:48:36;;;;;;;19.75;12.88;;;4.10;96.70;;;;;;4826173;29;20050;-73
2021/01/13 03:51:05;;;;;;;19.70;13.70;;;4.10;96.70;;;;;;4824449;29;20045;-73
2021/01/13 03:53:39;;;;;;;18.38;14.07;;;4.20;96.70;;;;;;4831511;29;20057;-74
2021/01/13 03:56:20;;;;;;;20.05;13.98;;;4.20;96.70;;;;;;4834581;29;20118;-71
2021/01/13 03:58:49;;;;;;;20.48;13.88;;;4.20;96.70;;;;;;4841581;29;20095;-74
2021/01/13 04:01:49;;;;;;;23.95;14.63;;;4.10;96.70;;;;;;4838747;29;20057;-74
2021/01/13 04:04:25;;;;;;;20.20;13.98;;;4.10;96.70;;;;;;4829317;29;20046;-71
2021/01/13 04:07:00;;;;;;;22.02;14.40;;;4.10;96.70;;;;;;4843529;29;20150;-71
2021/01/13 04:09:30;;;;;;;17.70;12.52;;;4.10;96.70;;;;;;4829622;29;20045;-71
2021/01/13 04:12:09;;;;;;;17.63;13.10;;;4.10;96.70;;;;;;4845652;29;20046;-72
2021/01/13 04:14:49;;;;;;;22.42;14.38;;;4.10;96.70;;;;;;4828672;29;20065;-69
2021/01/13 04:17:18;;;;;;;17.15;12.52;;;4.20;96.70;;;;;;4827810;29;20424;-73
2021/01/13 04:19:47;;;;;;;17.30;12.95;;;4.20;96.70;;;;;;4829238;29;20140;-71
2021/01/13 04:22:15;;;;;;;21.02;13.85;;;4.20;96.70;;;;;;4830668;29;20041;-71
2021/01/13 04:24:45;;;;;;;18.63;13.32;;;4.20;96.70;;;;;;4832627;29;20125;-71
2021/01/13 04:27:14;;;;;;;20.95;13.93;;;4.20;96.70;;;;;;4832495;29;20045;-72
2021/01/13 04:29:41;;;;;;;19.50;13.88;;;4.10;96.70;;;;;;4832574;29;20038;-71
2021/01/13 04:32:10;;;;;;;18.52;13.98;;;4.10;96.70;;;;;;4848938;29;20142;-71
2021/01/13 04:34:40;;;;;;;19.92;13.60;;;4.20;96.70;;;;;;4847114;29;20054;-72
2021/01/13 04:37:08;;;;;;;22.13;13.82;;;4.20;96.70;;;;;;4833270;29;20435;-72
2021/01/13 04:39:37;;;;;;;18.02;12.48;;;4.20;96.70;;;;;;4831888;29;20042;-71
2021/01/13 04:42:09;;;;;;;16.65;12.63;;;4.20;96.70;;;;;;4833904;29;20322;-71
2021/01/13 04:44:45;;;;;;;18.70;12.27;;;4.20;96.70;;;;;;4833935;29;20045;-71
2021/01/13 04:47:14;;;;;;;20.02;13.32;;;4.20;96.70;;;;;;4831926;29;20062;-72
2021/01/13 04:49:44;;;;;;;21.08;13.15;;;4.20;96.70;;;;;;4837079;29;20050;-71
2021/01/13 04:52:18;;;;;;;17.77;13.38;;;4.20;96.70;;;;;;4827829;29;20049;-71
2021/01/13 04:54:48;;;;;;;19.73;13.32;;;4.30;96.70;;;;;;4839533;29;20053;-70
2021/01/13 04:57:49;;;;;;;19.80;13.75;;;4.30;96.70;;;;;;4832120;29;20057;-71
2021/01/13 05:00:44;;;;;;;16.45;12.10;;;4.20;96.70;;;;;;4829221;29;20068;-71
2021/01/13 05:03:42;;;;;;;16.25;11.68;;;4.20;96.70;;;;;;4846251;29;20124;-71
2021/01/13 05:06:39;;;;;;;17.92;12.55;;;4.30;96.70;;;;;;4834151;29;20065;-72
2021/01/13 05:09:10;;;;;;;18.63;12.63;;;4.30;96.70;;;;;;4832617;29;20041;-69
2021/01/13 05:11:40;;;;;;;16.85;12.05;;;4.30;96.70;;;;;;4832167;29;20050;-70
2021/01/13 05:14:08;;;;;;;15.65;11.48;;;4.30;96.70;;;;;;4843733;29;20049;-70
2021/01/13 05:16:56;;;;;;;16.60;11.73;;;4.30;96.70;;;;;;4831793;29;20046;-69
2021/01/13 05:19:55;;;;;;;21.00;12.20;;;4.20;96.70;;;;;;4846466;29;20054;-69
2021/01/13 05:22:25;;;;;;;16.33;11.50;;;4.20;96.70;;;;;;4846748;29;20561;-69
2021/01/13 05:25:01;;;;;;;15.10;11.25;;;4.20;96.70;;;;;;4830986;29;20050;-70
2021/01/13 05:28:03;;;;;;;16.40;11.27;;;4.20;96.70;;;;;;4832478;29;20146;-69
2021/01/13 05:30:32;;;;;;;16.58;11.38;;;4.20;96.70;;;;;;4832474;29;20064;-69
2021/01/13 05:33:04;;;;;;;16.25;11.73;;;4.20;96.70;;;;;;4828100;29;20074;-70
2021/01/13 05:35:36;;;;;;;16.38;11.50;;;4.20;96.70;;;;;;4827113;29;20045;-69
2021/01/13 05:38:08;;;;;;;17.63;11.32;;;4.20;96.70;;;;;;4833444;29;21140;-69
2021/01/13 05:40:52;;;;;;;15.43;11.52;;;4.20;96.70;;;;;;4834296;29;20049;-70
2021/01/13 05:43:21;;;;;;;19.40;12.25;;;4.20;96.70;;;;;;4847272;29;20052;-69
2021/01/13 05:45:50;;;;;;;16.38;11.50;;;4.10;96.70;;;;;;4848809;29;20050;-70
2021/01/13 05:48:21;;;;;;;17.17;11.15;;;4.10;96.70;;;;;;4826678;29;20244;-69
2021/01/13 05:50:53;;;;;;;19.40;11.93;;;4.10;96.70;;;;;;4843626;29;20116;-71
2021/01/13 05:53:24;;;;;;;16.92;11.55;;;4.10;96.70;;;;;;4836959;29;20090;-69
2021/01/13 05:55:52;;;;;;;18.52;12.57;;;4.10;96.70;;;;;;4831107;29;20426;-69
2021/01/13 05:58:22;;;;;;;15.10;11.02;;;4.10;96.70;;;;;;4834555;29;20046;-69
2021/01/13 06:00:52;;;;;;;15.95;11.98;;;4.00;96.70;;;;;;4833658;29;20203;-69
2021/01/13 06:03:22;;;;;;;17.75;12.40;;;3.90;96.70;;;;;;4829676;29;20046;-69
2021/01/13 06:05:53;;;;;;;18.63;12.68;;;3.90;96.70;;;;;;4834041;29;20125;-69
2021/01/13 06:08:25;;;;;;;17.98;12.95;;;4.00;96.70;;;;;;4830563;29;20041;-70
2021/01/13 06:10:58;;;;;;;18.58;11.65;;;4.00;96.70;;;;;;4831977;29;20542;-69
2021/01/13 06:13:30;;;;;;;18.73;13.10;;;4.00;96.70;;;;;;4832024;29;20045;-69
2021/01/13 06:16:00;;;;;;;19.35;12.07;;;4.00;96.70;;;;;;4845564;29;20054;-70
2021/01/13 06:18:29;;;;;;;18.73;12.35;;;4.00;96.70;;;;;;4847060;29;20613;-69
2021/01/13 06:20:58;;;;;;;17.67;11.82;;;4.10;96.70;;;;;;4838026;29;20046;-70
2021/01/13 06:23:28;;;;;;;18.23;12.25;;;4.00;96.70;;;;;;4832835;29;20069;-69
2021/01/13 06:25:57;;;;;;;17.92;11.82;;;4.00;96.70;;;;;;4833347;29;20053;-71
2021/01/13 06:28:27;;;;;;;16.75;11.20;;;4.10;96.70;;;;;;4828508;29;20442;-71
2021/01/13 06:31:04;;;;;;;22.75;12.60;;;4.10;96.70;;;;;;4830025;29;20458;-71
2021/01/13 06:33:39;;;;;;;17.80;10.77;;;4.10;96.70;;;;;;4834543;29;20326;-71
2021/01/13 06:36:17;;;;;;;16.40;11.57;;;4.10;96.70;;;;;;4844416;29;20401;-71
2021/01/13 06:38:53;;;;;;;16.83;11.27;;;4.10;96.70;;;;;;4832375;29;20098;-72
2021/01/13 06:41:22;;;;;;;;;;;4.10;96.70;;;;;;4832566;29;20049;-71
2021/01/13 06:44:05;;;;;;;12.82;9.63;;;4.20;96.70;;;;;;4831677;29;19932;-71
2021/01/13 06:46:35;;;;;;;14.93;9.88;;;4.10;96.70;;;;;;4830305;29;20077;-71
2021/01/13 06:49:10;;;;;;;15.20;10.68;;;4.10;96.70;;;;;;4824599;29;20112;-71
2021/01/13 06:51:42;;;;;;;17.58;10.48;;;4.00;96.70;;;;;;4831612;29;20528;-71
2021/01/13 06:54:13;;;;;;;15.07;10.55;;;4.00;96.70;;;;;;4828769;29;20061;-71
2021/01/13 06:56:58;;;;;;;15.07;9.98;;;4.10;96.70;;;;;;4828000;29;20175;-71
2021/01/13 06:59:26;;;;;;;18.70;10.95;;;4.10;96.70;;;;;;4835014;29;20085;-70
2021/01/13 07:01:54;;;;;;;14.23;9.98;;;4.10;96.70;;;;;;4827244;29;20056;-72
2021/01/13 07:04:25;;;;;;;15.15;10.90;;;4.20;96.70;;;;;;4835305;29;20045;-71
2021/01/13 07:06:57;;;;;;;15.35;10.77;;;4.10;96.70;;;;;;4831067;29;20528;-72
2021/01/13 07:09:32;;;;;;;15.43;9.98;;;4.10;96.70;;;;;;4849145;29;20054;-71
2021/01/13 07:12:07;;;;;;;16.65;11.18;;;4.10;96.70;;;;;;4840477;29;20045;-71
2021/01/13 07:14:40;;;;;;;14.32;9.32;;;4.10;96.70;;;;;;4831434;29;20144;-71
2021/01/13 07:17:09;;;;;;;16.83;10.38;;;4.10;96.70;;;;;;4832462;29;20153;-75
2021/01/13 07:19:37;;;;;;;13.55;10.23;;;4.10;96.70;;;;;;4830015;29;20489;-71
2021/01/13 07:22:05;;;;;;;14.35;9.50;;;4.20;96.70;;;;;;4831030;29;20084;-72
2021/01/13 07:24:32;;;;;;;13.07;10.30;;;4.20;96.70;;;;;;4829892;29;20049;-70
2021/01/13 07:27:01;;;;;;;16.88;9.25;;;4.20;96.70;;;;;;4844483;29;20069;-71
2021/01/13 07:29:29;;;;;;;14.93;9.70;;;4.30;96.70;;;;;;4833999;29;20048;-72
2021/01/13 07:31:58;;;;;;;17.10;10.80;;;4.30;96.70;;;;;;4831873;29;20077;-72
2021/01/13 07:34:35;;;;;;;14.07;10.30;;;4.40;96.70;;;;;;4830729;29;20053;-72
2021/01/13 07:37:06;;;;;;;16.70;10.23;;;4.30;96.70;;;;;;4831863;29;20106;-72
2021/01/13 07:40:00;;;;;;;13.13;8.63;;;4.40;96.70;;;;;;4831831;29;20118;-72
2021/01/13 07:42:36;;;;;;;12.07;9.10;;;4.30;96.70;;;;;;4832922;29;20038;-71
2021/01/13 07:45:07;;;;;;;12.30;9.13;;;4.30;96.70;;;;;;4835244;29;20057;-71
2021/01/13 07:48:13;;;;;;;13.55;8.85;;;4.40;96.70;;;;;;4832941;29;20046;-72
2021/01/13 07:50:42;;;;;;;14.07;9.02;;;4.50;96.70;;;;;;4830871;29;20505;-71
2021/01/13 07:53:11;;;;;;;13.35;8.95;;;4.50;96.70;;;;;;4829089;29;20074;-71
2021/01/13 07:55:43;;;;;;;12.05;8.70;;;4.60;96.70;;;;;;4839706;29;20054;-72
2021/01/13 07:58:20;;;;;;;13.05;9.23;;;4.60;96.70;;;;;;4835449;29;20069;-70
2021/01/13 08:00:59;;;;;;;15.43;9.45;;;4.60;96.70;;;;;;4832935;29;20056;-69
2021/01/13 08:03:57;;;;;;;11.57;8.55;;;4.60;96.70;;;;;;4846764;29;20517;-70
2021/01/13 08:06:34;;;;;;;12.93;9.10;;;4.60;96.70;;;;;;4846526;29;20062;-70
2021/01/13 08:09:07;;;;;;;15.82;9.93;;;4.60;96.70;;;;;;4829596;29;20524;-69
2021/01/13 08:12:04;;;;;;;15.57;9.15;;;4.60;96.70;;;;;;4849508;29;20580;-70
2021/01/13 08:15:04;;;;;;;12.77;8.68;;;4.60;96.70;;;;;;4831170;29;20057;-70
2021/01/13 08:17:40;;;;;;;14.10;9.65;;;4.70;96.70;;;;;;4833367;29;20045;-69
2021/01/13 08:20:30;;;;;;;12.48;8.95;;;4.70;96.70;;;;;;4835026;29;20626;-69
2021/01/13 08:22:59;;;;;;;13.85;9.75;;;4.80;96.70;;;;;;4832250;29;20061;-70
2021/01/13 08:25:28;;;;;;;13.32;9.40;;;4.80;96.70;;;;;;4840408;29;20048;-69
2021/01/13 08:27:57;;;;;;;17.88;9.45;;;4.90;96.70;;;;;;4835908;29;20537;-71
2021/01/13 08:30:28;;;;;;;16.38;9.57;;;4.90;96.70;;;;;;4834924;29;20569;-69
2021/01/13 08:32:57;;;;;;;15.15;10.30;;;5.00;96.70;;;;;;4834419;29;20065;-69
2021/01/13 08:35:33;;;;;;;13.02;9.23;;;5.00;96.70;;;;;;4834540;29;20045;-68
2021/01/13 08:38:08;;;;;;;15.00;10.00;;;5.10;96.70;;;;;;4834206;29;20057;-70
2021/01/13 08:40:38;;;;;;;16.55;10.20;;;5.20;96.70;;;;;;4834226;29;20405;-71
2021/01/13 08:43:08;;;;;;;15.70;10.95;;;5.20;96.70;;;;;;4849085;29;20620;-72
2021/01/13 08:45:38;;;;;;;15.85;11.02;;;5.20;96.70;;;;;;4835095;29;20054;-72
2021/01/13 08:48:08;;;;;;;16.50;11.05;;;5.30;96.70;;;;;;4831438;29;20054;-71
2021/01/13 08:50:36;;;;;;;17.30;11.50;;;5.40;96.70;;;;;;4838167;29;20050;-71
2021/01/13 08:53:05;;;;;;;15.80;10.43;;;5.50;96.70;;;;;;4836324;29;20061;-71
2021/01/13 08:55:33;;;;;;;15.65;10.10;;;5.50;96.70;;;;;;4846509;29;20136;-72
2021/01/13 08:58:06;;;;;;;15.88;10.15;;;5.50;96.70;;;;;;4833456;29;20485;-71
2021/01/13 09:00:36;;;;;;;14.50;9.75;;;5.50;96.70;;;;;;4837441;29;20062;-72
2021/01/13 09:03:10;;;;;;;12.85;9.18;;;5.60;96.70;;;;;;4830030;29;20050;-71
2021/01/13 09:05:40;;;;;;;12.10;8.95;;;5.60;96.70;;;;;;4830579;29;20053;-71
2021/01/13 09:08:09;;;;;;;13.23;9.00;;;5.70;96.70;;;;;;4820545;29;20054;-72
2021/01/13 09:10:49;;;;;;;13.38;8.30;;;5.80;96.70;;;;;;4833365;29;20402;-72
2021/01/13 09:13:35;;;;;;;12.98;8.55;;;5.90;96.70;;;;;;4831848;29;20077;-72
2021/01/13 09:16:32;;;;;;;11.85;8.65;;;5.90;96.70;;;;;;4832577;29;20630;-72
2021/01/13 09:19:06;;;;;;;12.07;8.30;;;6.00;96.70;;;;;;4836140;29;20057;-72
2021/01/13 09:21:35;;;;;;;11.77;8.50;;;6.10;96.70;;;;;;4844291;29;20509;-72
2021/01/13 09:24:05;;;;;;;15.00;9.50;;;6.10;96.70;;;;;;4830061;29;20046;-70
2021/01/13 09:26:34;;;;;;;14.93;9.23;;;6.20;96.70;;;;;;4832223;29;20057;-71
2021/01/13 09:29:05;;;;;;;15.02;10.23;;;6.30;96.70;;;;;;4846909;29;20060;-71
2021/01/13 09:31:33;;;;;;;13.63;9.98;;;6.40;96.70;;;;;;4846314;29;20046;-70
2021/01/13 09:34:01;;;;;;;13.45;10.02;;;6.50;96.70;;;;;;4827709;29;20065;-71
2021/01/13 09:36:31;;;;;;;14.55;10.88;;;6.60;96.70;;;;;;4848922;29;20089;-70
2021/01/13 09:39:14;;;;;;;13.80;9.82;;;6.60;96.70;;;;;;4849599;29;20129;-70
2021/01/13 09:41:54;;;;;;;13.40;10.25;;;6.60;96.70;;;;;;4834723;29;20539;-69
2021/01/13 09:44:30;;;;;;;13.25;10.45;;;6.70;96.70;;;;;;4832416;29;20057;-70
2021/01/13 09:46:58;;;;;;;13.68;10.15;;;6.80;96.70;;;;;;4831010;29;20111;-70
2021/01/13 09:49:26;;;;;;;15.60;10.98;;;6.90;96.70;;;;;;4833920;29;20098;-71
2021/01/13 09:51:54;;;;;;;12.70;10.23;;;7.00;96.70;;;;;;4833489;29;20060;-70
2021/01/13 09:54:24;;;;;;;12.43;9.82;;;7.00;96.70;;;;;;4844231;29;20041;-71
2021/01/13 09:56:56;;;;;;;13.80;10.63;;;7.10;96.70;;;;;;4833736;29;20520;-70
2021/01/13 09:59:25;;;;;;;13.75;10.43;;;7.10;96.70;;;;;;4831854;29;20048;-71
2021/01/13 10:01:57;;;;;;;14.60;10.10;;;7.20;96.70;;;;;;4829215;29;20092;-70
2021/01/13 10:04:25;;;;;;;15.15;11.02;;;7.30;96.70;;;;;;4833042;29;20132;-71
2021/01/13 10:06:56;;;;;;;15.45;10.52;;;7.40;96.70;;;;;;4846553;29;20546;-71
2021/01/13 10:09:25;;;;;;;15.93;11.43;;;7.40;96.70;;;;;;4831318;29;20050;-70
2021/01/13 10:11:55;;;;;;;15.55;12.23;;;7.40;96.70;;;;;;4831226;29;20049;-70
2021/01/13 10:14:23;;;;;;;16.20;10.85;;;7.50;96.70;;;;;;4829049;29;20053;-71
2021/01/13 10:16:51;;;;;;;15.60;10.45;;;7.60;96.70;;;;;;4850620;29;20060;-71
2021/01/13 10:19:26;;;;;;;16.08;11.13;;;7.60;96.70;;;;;;4826271;29;20081;-71
2021/01/13 10:21:57;;;;;;;17.65;11.20;;;7.70;96.70;;;;;;4842101;29;20110;-69
2021/01/13 10:24:26;;;;;;;13.65;9.88;;;7.80;96.70;;;;;;4828912;29;20049;-69
2021/01/13 10:26:59;;;;;;;13.73;10.02;;;7.80;96.70;;;;;;4832116;29;20046;-69
2021/01/13 10:29:27;;;;;;;12.50;9.70;;;7.90;96.70;;;;;;4830373;29;20046;-70
2021/01/13 10:31:57;;;;;;;15.43;10.07;;;8.10;96.70;;;;;;4834278;29;20185;-70
2021/01/13 10:34:25;;;;;;;12.80;10.15;;;8.20;96.70;;;;;;4828581;29;20046;-70
2021/01/13 10:36:53;;;;;;;13.85;10.15;;;8.20;96.70;;;;;;4830455;29;20706;-70
2021/01/13 10:39:24;;;;;;;12.93;9.93;;;8.30;96.70;;;;;;4829823;29;20069;-69
2021/01/13 10:41:53;;;;;;;12.27;9.70;;;8.20;96.70;;;;;;4830508;29;20046;-70
2021/01/13 10:44:22;;;;;;;12.23;9.80;;;8.30;96.70;;;;;;4830448;29;20062;-70
2021/01/13 10:46:52;;;;;;;12.45;9.57;;;8.40;96.70;;;;;;4829276;29;20046;-70
2021/01/13 10:49:30;;;;;;;13.80;10.18;;;8.40;96.70;;;;;;4843113;29;20050;-71
2021/01/13 10:52:01;;;;;;;12.63;8.82;;;8.50;96.70;;;;;;4833264;29;20052;-70
2021/01/13 10:54:30;;;;;;;11.05;8.95;;;8.60;96.70;;;;;;4835882;29;20046;-70
2021/01/13 10:57:02;;;;;;;11.63;8.65;;;8.70;96.70;;;;;;4840276;29;20085;-70
2021/01/13 10:59:30;;;;;;;11.68;8.50;;;8.80;96.70;;;;;;4844524;29;20061;-69
2021/01/13 11:02:02;;;;;;;11.93;8.88;;;8.90;96.70;;;;;;4831722;29;20769;-70
2021/01/13 11:04:34;;;;;;;10.85;8.80;;;9.00;96.70;;;;;;4827625;29;20177;-70
2021/01/13 11:07:06;;;;;;;13.93;10.23;;;9.10;96.70;;;;;;4829782;29;20057;-70
2021/01/13 11:09:35;;;;;;;13.70;10.48;;;9.20;96.70;;;;;;4826181;29;20055;-70
2021/01/13 11:12:04;;;;;;;15.18;9.77;;;9.10;96.70;;;;;;4831118;29;20505;-70
2021/01/13 11:14:37;;;;;;;14.05;10.52;;;9.20;96.70;;;;;;4841469;29;20054;-70
2021/01/13 11:17:09;;;;;;;12.02;9.55;;;9.30;96.70;;;;;;4831473;29;20049;-70
2021/01/13 11:19:38;;;;;;;13.80;10.30;;;9.40;96.70;;;;;;4837800;29;20439;-69
2021/01/13 11:22:07;;;;;;;12.70;9.27;;;9.50;96.70;;;;;;4815633;29;20505;-70
2021/01/13 11:24:38;;;;;;;13.27;9.25;;;9.50;96.70;;;;;;4833496;29;20231;-70
2021/01/13 11:27:08;;;;;;;10.43;8.32;;;9.60;96.70;;;;;;4830819;29;20125;-70
2021/01/13 11:29:38;;;;;;;11.10;7.75;;;9.70;96.70;;;;;;4830764;29;20520;-69
2021/01/13 11:32:08;;;;;;;11.45;8.65;;;9.70;96.70;;;;;;4832111;29;20142;-70
2021/01/13 11:34:36;;;;;;;10.50;7.97;;;9.80;96.70;;;;;;4832817;29;20420;-70
2021/01/13 11:37:22;;;;;;;10.88;7.68;;;9.90;96.70;;;;;;4834080;29;20064;-70
2021/01/13 11:40:03;;;;;;;11.60;8.00;;;10.00;96.70;;;;;;4845819;29;20390;-70
2021/01/13 11:42:59;;;;;;;10.90;8.30;;;10.10;96.70;;;;;;4838081;29;20075;-69
2021/01/13 11:45:30;;;;;;;9.88;7.95;;;10.30;96.70;;;;;;4841634;29;20046;-69
2021/01/13 11:48:05;;;;;;;10.52;8.60;;;10.30;96.70;;;;;;4833426;29;20045;-71
2021/01/13 11:50:36;;;;;;;11.00;8.82;;;10.30;96.70;;;;;;4831638;29;20045;-69
2021/01/13 11:53:06;;;;;;;12.18;8.45;;;10.40;96.70;;;;;;4835745;29;23843;-71
2021/01/13 11:55:34;;;;;;;14.23;10.20;;;10.50;96.70;;;;;;4838296;29;20584;-69
2021/01/13 11:58:01;;;;;;;12.43;10.02;;;10.60;96.60;;;;;;4837947;29;20085;-69
2021/01/13 12:00:29;;;;;;;12.50;10.02;;;10.70;96.70;;;;;;4820641;29;20140;-69
2021/01/13 12:02:59;;;;;;;13.27;10.57;;;10.70;96.50;;;;;;4820984;29;20042;-70
2021/01/13 12:05:29;;;;;;;14.20;11.05;;;10.70;96.50;;;;;;4832677;29;20523;-69
2021/01/13 12:07:58;;;;;;;15.13;11.40;;;10.80;96.20;;;;;;4837087;29;20061;-70
2021/01/13 12:10:33;;;;;;;12.30;10.80;;;10.90;96.20;;;;;;4823840;29;20209;-69
2021/01/13 12:13:16;;;;;;;13.38;11.02;;;11.00;96.00;;;;;;4848408;29;20050;-70
2021/01/13 12:15:53;;;;;;;15.95;10.98;;;11.10;96.00;;;;;;4832361;29;20045;-70
2021/01/13 12:18:24;;;;;;;13.27;10.98;;;11.10;95.70;;;;;;4836443;29;20073;-70
2021/01/13 12:20:52;;;;;;;16.17;11.95;;;11.10;96.00;;;;;;4849929;29;20114;-70
2021/01/13 12:23:27;;;;;;;15.85;11.80;;;11.20;95.80;;;;;;4836925;29;20054;-70
2021/01/13 12:26:14;;;;;;;13.73;10.48;;;11.30;95.90;;;;;;4836663;29;20210;-70
2021/01/13 12:28:42;;;;;;;17.83;11.10;;;11.50;95.50;;;;;;4832709;29;20038;-70
2021/01/13 12:31:10;;;;;;;13.18;10.52;;;11.60;95.40;;;;;;4844326;29;20110;-70
2021/01/13 12:33:48;;;;;;;13.10;10.65;;;11.60;95.20;;;;;;4831469;29;20046;-70
2021/01/13 12:36:19;;;;;;;15.48;11.75;;;11.50;95.40;;;;;;4849758;29;20140;-70
2021/01/13 12:38:46;;;;;;;15.18;11.32;;;11.60;95.20;;;;;;4836246;29;20049;-70
2021/01/13 12:41:24;;;;;;;18.70;12.90;;;11.70;95.10;;;;;;4834984;29;20042;-70
2021/01/13 12:43:53;;;;;;;17.38;11.50;;;11.80;94.70;;;;;;4830452;29;20120;-70
2021/01/13 12:46:25;;;;;;;19.08;12.63;;;11.90;94.80;;;;;;4833128;29;20057;-70
2021/01/13 12:48:53;;;;;;;16.45;11.43;;;11.90;94.80;;;;;;4833909;29;20544;-70
2021/01/13 12:51:20;;;;;;;21.17;13.93;;;12.00;94.60;;;;;;4837521;29;20030;-70
2021/01/13 12:53:48;;;;;;;19.85;14.82;;;12.00;94.70;;;;;;4831584;29;20049;-70
2021/01/13 12:56:25;;;;;;;18.80;13.15;;;12.10;94.70;;;;;;4847996;29;20050;-71
2021/01/13 12:58:53;;;;;;;22.90;14.57;;;12.20;94.40;;;;;;4830573;29;20513;-70
2021/01/13 13:01:21;;;;;;;20.30;14.30;;;12.30;94.30;;;;;;4831483;29;20390;-70
2021/01/13 13:03:49;;;;;;;19.30;12.80;;;12.20;94.10;;;;;;4846359;29;20053;-70
2021/01/13 13:06:24;;;;;;;18.05;12.20;;;12.20;94.40;;;;;;4832206;29;20612;-70
2021/01/13 13:08:52;;;;;;;16.42;11.93;;;12.20;94.30;;;;;;4830758;29;20705;-69